Ruso, North Dakota
Current Conditions -  °F | °C
As of 11:54 AM on Monday 24 Nov 2014 (Local Time) from KMOT Reporting Station
Clear Clear  
Wind Chill:   Ceiling: Unl
Heat Index: 16°   Visibility: 10mi
Dew Point:   Wind: 14mph
Humidity: 52%   Direction: 300°WNW
Pressure: 29.93"   Gusts: NA
Location:  47.84°N, 100.93°W
Report Text: KMOT 241754Z 30012KT 10SM CLR M09/M17 A2993 RMK AO2 SLP171 T10891172 11089 21150 50012
Loading
Personal Weather Stations






























Interactive Weather Map New forecast layout! Learn more

10-Day Weather Forecast

Advertisements
Track Severe Weather on mobile